Time;durP1;ratioP1;P1;durP2;ratioP2;P2;SDS_P1;SDS_P2;PMS_P1;PMS_P2;Temp;Humidity;BMP_temperature;BMP_pressure;BME280_temperature;BME280_humidity;BME280_pressure;Samples;Min_cycle;Max_cycle;Signal;HPM_P1;HPM_P2
2022/06/19 00:01:16;;;;;;;12.48;2.55;;;14.60;99.90;;;;;;5059700;28;20073;-77
2022/06/19 00:03:47;;;;;;;9.52;2.15;;;14.60;99.90;;;;;;5069677;28;20044;-77
2022/06/19 00:06:15;;;;;;;7.38;1.80;;;14.50;99.90;;;;;;5072026;28;20110;-77
2022/06/19 00:08:41;;;;;;;9.35;2.67;;;14.50;99.90;;;;;;5079425;28;20067;-77
2022/06/19 00:11:10;;;;;;;7.50;1.70;;;14.50;99.90;;;;;;5069364;28;20120;-77
2022/06/19 00:13:37;;;;;;;8.95;1.90;;;14.40;99.90;;;;;;5082758;28;20086;-77
2022/06/19 00:16:03;;;;;;;10.32;2.10;;;14.40;99.90;;;;;;5059647;28;20043;-77
2022/06/19 00:18:29;;;;;;;9.63;2.03;;;14.40;99.90;;;;;;5050344;28;20435;-77
2022/06/19 00:20:54;;;;;;;9.57;2.00;;;14.30;99.90;;;;;;5083516;28;20063;-78
2022/06/19 00:23:20;;;;;;;6.65;1.70;;;14.30;99.90;;;;;;5048857;28;20071;-77
2022/06/19 00:25:46;;;;;;;10.20;2.00;;;14.30;99.90;;;;;;5057156;28;20052;-77
2022/06/19 00:28:12;;;;;;;9.05;1.90;;;14.30;99.90;;;;;;5067737;28;20044;-77
2022/06/19 00:30:38;;;;;;;10.80;2.58;;;14.30;99.90;;;;;;5059158;28;20061;-78
2022/06/19 00:33:04;;;;;;;7.43;2.10;;;14.30;99.90;;;;;;5083644;28;20090;-77
2022/06/19 00:35:30;;;;;;;10.25;2.45;;;14.30;99.90;;;;;;5065243;28;20424;-77
2022/06/19 00:37:57;;;;;;;10.35;2.20;;;14.30;99.90;;;;;;5060725;28;20050;-77
2022/06/19 00:40:24;;;;;;;11.15;2.50;;;14.30;99.90;;;;;;5063699;28;20044;-77
2022/06/19 00:42:50;;;;;;;10.57;2.33;;;14.30;99.90;;;;;;5048397;28;20139;-77
2022/06/19 00:45:34;;;;;;;12.45;2.45;;;14.30;99.90;;;;;;5045932;28;20119;-77
2022/06/19 00:48:16;;;;;;;12.35;2.53;;;14.30;99.90;;;;;;5057493;28;20078;-77
2022/06/19 00:50:44;;;;;;;11.52;2.38;;;14.30;99.90;;;;;;5063380;28;20434;-77
2022/06/19 00:53:17;;;;;;;6.80;1.77;;;14.30;99.90;;;;;;5085348;28;20032;-77
2022/06/19 00:55:46;;;;;;;10.27;2.58;;;14.30;99.90;;;;;;5068603;28;20086;-77
2022/06/19 00:58:14;;;;;;;11.05;2.53;;;14.30;99.90;;;;;;5083570;28;20032;-77
2022/06/19 01:00:42;;;;;;;9.00;2.20;;;14.40;99.90;;;;;;5076100;28;20084;-77
2022/06/19 01:03:40;;;;;;;9.63;2.13;;;14.40;99.90;;;;;;5082633;28;20439;-77
2022/06/19 01:06:07;;;;;;;11.18;2.22;;;14.40;99.90;;;;;;5065488;28;20447;-77
2022/06/19 01:08:33;;;;;;;11.23;2.40;;;14.50;99.90;;;;;;5064400;28;20052;-77
2022/06/19 01:10:59;;;;;;;11.63;2.35;;;14.50;99.90;;;;;;5053360;28;20337;-77
2022/06/19 01:13:28;;;;;;;10.68;2.92;;;14.50;99.90;;;;;;5077879;28;20040;-78
2022/06/19 01:15:54;;;;;;;15.32;2.33;;;14.50;99.90;;;;;;5062544;28;20074;-77
2022/06/19 01:18:21;;;;;;;12.80;2.80;;;14.50;99.90;;;;;;5068337;28;20044;-78
2022/06/19 01:20:52;;;;;;;16.05;3.20;;;14.50;99.90;;;;;;5075760;28;20044;-77
2022/06/19 01:23:33;;;;;;;12.38;2.83;;;14.50;99.90;;;;;;5062384;28;20035;-77
2022/06/19 01:25:59;;;;;;;16.48;3.10;;;14.50;99.90;;;;;;5077437;28;20044;-78
2022/06/19 01:28:55;;;;;;;14.43;2.90;;;14.50;99.90;;;;;;5059024;28;20032;-77
2022/06/19 01:31:28;;;;;;;14.43;2.72;;;14.50;99.90;;;;;;5066209;28;20119;-77
2022/06/19 01:34:27;;;;;;;14.00;2.53;;;14.50;99.90;;;;;;5083354;28;20116;-77
2022/06/19 01:36:58;;;;;;;10.88;2.53;;;14.50;99.90;;;;;;5100471;28;20166;-77
2022/06/19 01:39:25;;;;;;;14.05;2.60;;;14.50;99.90;;;;;;5080489;28;20648;-77
2022/06/19 01:41:51;;;;;;;13.25;2.60;;;14.50;99.90;;;;;;5060271;28;20402;-77
2022/06/19 01:44:17;;;;;;;15.65;2.90;;;14.50;99.90;;;;;;5082973;28;20032;-77
2022/06/19 01:46:43;;;;;;;12.90;2.22;;;14.50;99.90;;;;;;5058448;28;20589;-78
2022/06/19 01:49:08;;;;;;;15.77;3.13;;;14.50;99.90;;;;;;5053283;28;20078;-78
2022/06/19 01:51:34;;;;;;;13.70;3.65;;;14.50;99.90;;;;;;5064776;28;20068;-77
2022/06/19 01:54:06;;;;;;;14.75;2.60;;;14.40;99.90;;;;;;5071337;28;20401;-78
2022/06/19 01:56:32;;;;;;;9.20;2.50;;;15.20;99.90;;;;;;5068668;28;20645;-77
2022/06/19 01:59:03;;;;;;;15.77;3.08;;;14.30;99.90;;;;;;5086754;28;20380;-78
2022/06/19 02:01:29;;;;;;;12.98;2.60;;;14.30;99.90;;;;;;5063744;28;20529;-78
2022/06/19 02:03:57;;;;;;;13.00;3.35;;;14.30;99.90;;;;;;5063324;28;20040;-78
2022/06/19 02:06:43;;;;;;;14.80;2.83;;;14.30;99.90;;;;;;5089234;28;20101;-77
2022/06/19 02:09:09;;;;;;;14.00;2.70;;;14.30;99.90;;;;;;5066244;28;20139;-77
2022/06/19 02:11:35;;;;;;;14.10;2.75;;;14.30;99.90;;;;;;5052317;28;20033;-77
2022/06/19 02:14:07;;;;;;;12.05;2.85;;;14.30;99.90;;;;;;5085650;28;20039;-77
2022/06/19 02:16:37;;;;;;;13.48;2.50;;;14.30;99.90;;;;;;5087003;28;20103;-77
2022/06/19 02:19:03;;;;;;;11.57;2.65;;;14.30;99.90;;;;;;5083557;28;20043;-78
2022/06/19 02:21:48;;;;;;;10.90;3.03;;;14.30;99.90;;;;;;5083625;28;20044;-78
2022/06/19 02:24:20;;;;;;;16.42;3.50;;;14.30;99.90;;;;;;5070931;28;20112;-77
2022/06/19 02:26:48;;;;;;;14.07;2.72;;;14.30;99.90;;;;;;5069268;28;20067;-78
2022/06/19 02:29:16;;;;;;;13.93;2.78;;;14.20;99.90;;;;;;5086732;28;20498;-78
2022/06/19 02:31:44;;;;;;;10.70;2.60;;;14.30;99.90;;;;;;5070270;28;20048;-78
2022/06/19 02:34:20;;;;;;;14.27;2.65;;;14.20;99.90;;;;;;5062336;28;20113;-77
2022/06/19 02:36:59;;;;;;;13.73;3.17;;;14.20;99.90;;;;;;5071150;28;20035;-77
2022/06/19 02:39:37;;;;;;;15.38;3.22;;;14.10;99.90;;;;;;5079479;28;20257;-77
2022/06/19 02:42:23;;;;;;;12.32;2.72;;;14.10;99.90;;;;;;5085225;28;20132;-77
2022/06/19 02:44:52;;;;;;;14.15;2.67;;;14.10;99.90;;;;;;5085898;28;20474;-78
2022/06/19 02:47:18;;;;;;;17.13;3.20;;;14.10;99.90;;;;;;5066319;28;20028;-77
2022/06/19 02:49:45;;;;;;;19.23;3.17;;;14.10;99.90;;;;;;5068503;28;20074;-77
2022/06/19 02:52:12;;;;;;;16.10;2.78;;;14.00;99.90;;;;;;5070865;28;20070;-78
2022/06/19 02:54:38;;;;;;;15.77;3.38;;;14.10;99.90;;;;;;5064944;28;20457;-77
2022/06/19 02:57:06;;;;;;;14.88;3.22;;;14.00;99.90;;;;;;5054717;28;20047;-78
2022/06/19 02:59:32;;;;;;;14.95;3.33;;;14.00;99.90;;;;;;5079281;28;20091;-78
2022/06/19 03:01:58;;;;;;;18.00;3.75;;;14.00;99.90;;;;;;5048400;28;20047;-77
2022/06/19 03:04:29;;;;;;;18.13;3.38;;;13.90;99.90;;;;;;5029518;28;20036;-77
2022/06/19 03:06:56;;;;;;;13.80;3.22;;;13.90;99.90;;;;;;5059500;28;20047;-77
2022/06/19 03:09:21;;;;;;;16.10;3.05;;;13.90;99.90;;;;;;5051301;28;20105;-77
2022/06/19 03:11:47;;;;;;;17.25;3.60;;;13.90;99.90;;;;;;5068622;28;20044;-77
2022/06/19 03:14:13;;;;;;;12.95;3.38;;;13.80;99.90;;;;;;5085221;28;20043;-77
2022/06/19 03:16:39;;;;;;;15.43;3.17;;;13.80;99.90;;;;;;5047099;28;20041;-77
2022/06/19 03:19:05;;;;;;;14.10;2.53;;;13.80;99.90;;;;;;5086145;28;20040;-77
2022/06/19 03:21:31;;;;;;;16.48;2.78;;;13.80;99.90;;;;;;5067903;28;20032;-77
2022/06/19 03:23:56;;;;;;;12.10;2.75;;;13.80;99.90;;;;;;5052554;28;20043;-77
2022/06/19 03:26:22;;;;;;;15.75;2.92;;;13.80;99.90;;;;;;5061677;28;20042;-77
2022/06/19 03:28:48;;;;;;;17.00;2.90;;;13.70;99.90;;;;;;5036108;28;20474;-77
2022/06/19 03:31:18;;;;;;;12.65;2.90;;;13.70;99.90;;;;;;5052832;28;20097;-77
2022/06/19 03:33:43;;;;;;;15.52;3.13;;;13.70;99.90;;;;;;5084100;28;20032;-77
2022/06/19 03:36:10;;;;;;;12.82;2.85;;;13.60;99.90;;;;;;5085354;28;20101;-77
2022/06/19 03:38:35;;;;;;;15.85;2.90;;;13.60;99.90;;;;;;5050267;28;20044;-77
2022/06/19 03:41:01;;;;;;;13.80;2.38;;;13.60;99.90;;;;;;5062095;28;20127;-77
2022/06/19 03:43:27;;;;;;;17.67;3.15;;;13.70;99.90;;;;;;5050285;28;20045;-77
2022/06/19 03:46:12;;;;;;;14.98;3.20;;;13.70;99.90;;;;;;5054631;28;20059;-77
2022/06/19 03:48:40;;;;;;;14.35;2.78;;;13.70;99.90;;;;;;5079669;28;20044;-77
2022/06/19 03:51:05;;;;;;;12.80;2.75;;;13.70;99.90;;;;;;5066655;28;20040;-77
2022/06/19 03:53:31;;;;;;;12.15;2.60;;;13.70;99.90;;;;;;5067781;28;20405;-77
2022/06/19 03:55:58;;;;;;;14.90;3.28;;;13.60;99.90;;;;;;5087695;28;20036;-76
2022/06/19 03:58:23;;;;;;;13.07;2.97;;;13.60;99.90;;;;;;5056506;28;20043;-76
2022/06/19 04:00:49;;;;;;;13.48;2.70;;;14.00;99.90;;;;;;5079215;28;20126;-77
2022/06/19 04:03:15;;;;;;;13.02;2.78;;;13.50;99.90;;;;;;5051306;28;20462;-76
2022/06/19 04:05:40;;;;;;;12.63;2.55;;;13.40;99.90;;;;;;5051462;28;20033;-76
2022/06/19 04:08:06;;;;;;;14.02;2.80;;;13.40;99.90;;;;;;5045210;28;20075;-76
2022/06/19 04:10:32;;;;;;;18.88;3.22;;;13.20;99.90;;;;;;5071230;28;20056;-76
2022/06/19 04:12:58;;;;;;;15.10;3.15;;;13.30;99.90;;;;;;5080257;28;20510;-76
2022/06/19 04:15:24;;;;;;;13.80;3.05;;;13.20;99.90;;;;;;5037076;28;20036;-76
2022/06/19 04:17:50;;;;;;;13.77;2.53;;;13.20;99.90;;;;;;5051647;28;20036;-76
2022/06/19 04:20:15;;;;;;;10.85;2.40;;;13.20;99.90;;;;;;5086942;28;20036;-75
2022/06/19 04:22:41;;;;;;;16.40;3.42;;;13.10;99.90;;;;;;5064148;28;20719;-76
2022/06/19 04:25:13;;;;;;;13.07;3.05;;;13.00;99.90;;;;;;5069510;28;20043;-76
2022/06/19 04:27:42;;;;;;;11.27;2.23;;;13.00;99.90;;;;;;5068243;28;20109;-76
2022/06/19 04:30:08;;;;;;;11.95;2.10;;;12.90;99.90;;;;;;5053231;28;20500;-76
2022/06/19 04:32:34;;;;;;;11.88;2.13;;;12.80;99.90;;;;;;5062490;28;20123;-76
2022/06/19 04:35:00;;;;;;;11.63;2.47;;;12.60;99.90;;;;;;5066794;28;20560;-76
2022/06/19 04:37:25;;;;;;;9.32;2.05;;;12.50;99.90;;;;;;5050553;28;20123;-75
2022/06/19 04:39:51;;;;;;;10.32;2.30;;;12.40;99.90;;;;;;5067939;28;20253;-76
2022/06/19 04:42:17;;;;;;;8.20;1.90;;;12.40;99.90;;;;;;5052591;28;20040;-76
2022/06/19 04:44:42;;;;;;;10.40;2.13;;;12.30;99.90;;;;;;5059660;28;20032;-76
2022/06/19 04:47:08;;;;;;;9.18;2.13;;;12.20;99.90;;;;;;5063155;28;20520;-76
2022/06/19 04:49:34;;;;;;;9.57;2.30;;;12.20;99.90;;;;;;5058907;28;20363;-76
2022/06/19 04:51:59;;;;;;;11.00;2.25;;;12.10;99.90;;;;;;5081358;28;20394;-76
2022/06/19 04:54:25;;;;;;;10.52;1.88;;;12.10;99.90;;;;;;5040163;28;20043;-76
2022/06/19 04:56:51;;;;;;;9.50;2.03;;;12.10;99.90;;;;;;5039820;28;20426;-76
2022/06/19 04:59:16;;;;;;;7.00;1.70;;;12.10;99.90;;;;;;5045537;28;20111;-78
2022/06/19 05:01:42;;;;;;;9.18;1.90;;;12.10;99.90;;;;;;5062196;28;20044;-76
2022/06/19 05:04:11;;;;;;;12.02;2.15;;;12.00;99.90;;;;;;5074923;28;20054;-76
2022/06/19 05:06:37;;;;;;;7.95;1.98;;;12.00;99.90;;;;;;5081606;28;20047;-76
2022/06/19 05:09:04;;;;;;;7.85;1.80;;;12.00;99.90;;;;;;5063371;28;20047;-76
2022/06/19 05:11:31;;;;;;;10.57;2.10;;;12.00;99.90;;;;;;5085367;28;20040;-76
2022/06/19 05:13:57;;;;;;;8.45;1.90;;;12.00;99.90;;;;;;5053551;28;20044;-76
2022/06/19 05:16:24;;;;;;;10.15;2.33;;;12.00;99.90;;;;;;5080222;28;20046;-77
2022/06/19 05:18:53;;;;;;;11.65;2.42;;;12.10;99.90;;;;;;5071247;28;20093;-77
2022/06/19 05:21:19;;;;;;;10.00;2.22;;;12.10;99.90;;;;;;5070001;28;20067;-77
2022/06/19 05:23:47;;;;;;;12.00;2.50;;;12.20;99.90;;;;;;5071643;28;20534;-77
2022/06/19 05:26:22;;;;;;;13.32;2.88;;;12.30;99.90;;;;;;5050073;28;20354;-77
2022/06/19 05:28:50;;;;;;;14.90;3.15;;;12.40;99.90;;;;;;5077992;28;20048;-77
2022/06/19 05:31:16;;;;;;;13.98;2.40;;;12.40;99.90;;;;;;5064989;28;20082;-77
2022/06/19 05:33:43;;;;;;;12.77;2.75;;;12.40;99.90;;;;;;5064142;28;20050;-77
2022/06/19 05:36:09;;;;;;;13.02;2.75;;;12.50;99.90;;;;;;5054394;28;20044;-77
2022/06/19 05:38:35;;;;;;;12.63;2.50;;;12.50;99.90;;;;;;5056405;28;20517;-78
2022/06/19 05:41:02;;;;;;;12.82;2.38;;;12.60;99.90;;;;;;5081440;28;20258;-77
2022/06/19 05:43:30;;;;;;;12.45;2.63;;;12.60;99.90;;;;;;5089726;28;20047;-77
2022/06/19 05:46:15;;;;;;;11.35;2.70;;;12.70;99.90;;;;;;5070137;28;20037;-77
2022/06/19 05:48:41;;;;;;;14.65;2.70;;;12.70;99.90;;;;;;5075744;28;20059;-77
2022/06/19 05:51:19;;;;;;;15.40;2.88;;;12.70;99.90;;;;;;5064986;28;20047;-77
2022/06/19 05:53:47;;;;;;;14.45;2.80;;;12.80;99.90;;;;;;5083927;28;20151;-77
2022/06/19 05:56:13;;;;;;;11.45;3.03;;;12.80;99.90;;;;;;5073614;28;20039;-77
2022/06/19 05:58:39;;;;;;;14.00;3.10;;;12.80;99.90;;;;;;5068738;28;20374;-78
2022/06/19 06:01:05;;;;;;;13.10;2.53;;;12.80;99.90;;;;;;5086182;28;20044;-77
2022/06/19 06:03:32;;;;;;;12.93;2.97;;;12.80;99.90;;;;;;5056452;28;20202;-77
2022/06/19 06:06:07;;;;;;;17.80;3.10;;;12.80;99.90;;;;;;5066290;28;20073;-77
2022/06/19 06:08:36;;;;;;;14.52;2.83;;;12.80;99.90;;;;;;5087430;28;20052;-78
2022/06/19 06:11:02;;;;;;;15.80;3.30;;;12.80;99.90;;;;;;5071191;28;20242;-77
2022/06/19 06:13:30;;;;;;;16.52;2.95;;;12.80;99.90;;;;;;5057582;28;20317;-78
2022/06/19 06:15:57;;;;;;;16.95;3.10;;;12.70;99.90;;;;;;5078660;28;20212;-78
2022/06/19 06:18:23;;;;;;;17.60;2.95;;;12.70;99.90;;;;;;5065640;28;20043;-77
2022/06/19 06:21:02;;;;;;;13.90;2.75;;;12.70;99.90;;;;;;5047596;28;20035;-77
2022/06/19 06:23:29;;;;;;;13.38;2.58;;;12.70;99.90;;;;;;5082626;28;20036;-77
2022/06/19 06:26:02;;;;;;;14.77;2.47;;;12.70;99.90;;;;;;5088042;28;20031;-77
2022/06/19 06:28:29;;;;;;;;;;;12.70;99.90;;;;;;5075624;28;20118;-77
2022/06/19 06:30:54;;;;;;;12.73;2.63;;;12.70;99.90;;;;;;5081783;28;20376;-77
2022/06/19 06:33:20;;;;;;;16.27;2.85;;;12.80;99.90;;;;;;5071189;28;20119;-77
2022/06/19 06:35:46;;;;;;;15.20;2.70;;;12.80;99.90;;;;;;5065864;28;20035;-78
2022/06/19 06:38:11;;;;;;;16.95;2.63;;;12.90;99.90;;;;;;5050548;28;20066;-77
2022/06/19 06:40:37;;;;;;;19.70;3.30;;;12.90;99.90;;;;;;5061021;28;20048;-77
2022/06/19 06:43:03;;;;;;;11.77;2.90;;;13.00;99.90;;;;;;5066946;28;20102;-77
2022/06/19 06:45:29;;;;;;;13.43;2.90;;;13.10;99.90;;;;;;5076696;28;20040;-77
2022/06/19 06:47:55;;;;;;;12.70;2.78;;;13.20;99.90;;;;;;5042974;28;20076;-77
2022/06/19 06:50:22;;;;;;;16.50;3.28;;;13.20;99.90;;;;;;5068236;28;20083;-77
2022/06/19 06:52:47;;;;;;;12.18;2.85;;;13.20;99.90;;;;;;5068902;28;20417;-77
2022/06/19 06:55:13;;;;;;;13.48;2.80;;;13.30;99.90;;;;;;5050149;28;20120;-77
2022/06/19 06:57:39;;;;;;;10.93;2.53;;;13.30;99.90;;;;;;5083185;28;20069;-76
2022/06/19 07:00:07;;;;;;;12.80;2.33;;;13.30;99.90;;;;;;5078028;28;20092;-77
2022/06/19 07:02:33;;;;;;;16.60;3.17;;;13.40;99.90;;;;;;5085612;28;20055;-78
2022/06/19 07:04:59;;;;;;;14.48;2.78;;;13.40;99.90;;;;;;5044589;28;20044;-78
2022/06/19 07:07:24;;;;;;;16.30;3.03;;;13.40;99.90;;;;;;5060907;28;20174;-77
2022/06/19 07:09:50;;;;;;;14.15;2.78;;;13.40;99.90;;;;;;5050165;28;20128;-77
2022/06/19 07:12:16;;;;;;;14.57;2.40;;;13.40;99.90;;;;;;5070789;28;20028;-77
2022/06/19 07:14:42;;;;;;;13.20;2.63;;;13.50;99.90;;;;;;5051880;28;20554;-77
2022/06/19 07:17:07;;;;;;;11.77;2.00;;;13.50;99.90;;;;;;5071896;28;20036;-76
2022/06/19 07:19:33;;;;;;;12.38;2.40;;;13.50;99.90;;;;;;5061283;28;20074;-77
2022/06/19 07:21:59;;;;;;;11.98;2.30;;;13.50;99.90;;;;;;5055678;28;20042;-77
2022/06/19 07:24:25;;;;;;;13.57;2.80;;;13.50;99.90;;;;;;5051122;28;20491;-78
2022/06/19 07:26:52;;;;;;;11.65;2.75;;;13.50;99.90;;;;;;5054681;28;20050;-78
2022/06/19 07:29:18;;;;;;;13.60;2.78;;;13.50;99.90;;;;;;5087946;28;20158;-78
2022/06/19 07:31:43;;;;;;;12.68;2.30;;;13.50;99.90;;;;;;5049811;28;20135;-78
2022/06/19 07:34:09;;;;;;;11.65;2.35;;;13.60;99.90;;;;;;5051471;28;20139;-77
2022/06/19 07:36:35;;;;;;;13.10;2.50;;;13.60;99.90;;;;;;5080282;28;20338;-78
2022/06/19 07:39:01;;;;;;;12.77;2.70;;;13.60;99.90;;;;;;5053645;28;20558;-77
2022/06/19 07:41:27;;;;;;;12.13;2.63;;;13.70;99.90;;;;;;5070504;28;20514;-78
2022/06/19 07:43:53;;;;;;;12.82;2.85;;;13.70;99.90;;;;;;5043582;28;20051;-78
2022/06/19 07:46:19;;;;;;;12.88;2.47;;;13.70;99.90;;;;;;5063118;28;20040;-77
2022/06/19 07:51:30;;;;;;;10.75;2.05;;;13.80;99.90;;;;;;5080146;28;20071;-78
2022/06/19 07:53:57;;;;;;;10.18;2.53;;;13.80;99.90;;;;;;5081357;28;20121;-79
2022/06/19 07:56:22;;;;;;;11.40;2.60;;;13.80;99.90;;;;;;5085097;28;20033;-79
2022/06/19 07:58:48;;;;;;;12.13;2.35;;;13.90;99.90;;;;;;5049090;28;20494;-79
2022/06/19 08:01:15;;;;;;;17.10;2.90;;;13.90;99.90;;;;;;5060150;28;20067;-77
2022/06/19 08:03:40;;;;;;;16.30;3.05;;;13.90;99.90;;;;;;5048093;28;20103;-78
2022/06/19 08:06:06;;;;;;;14.48;2.53;;;13.90;99.90;;;;;;5077524;28;20087;-79
2022/06/19 08:08:32;;;;;;;13.75;2.72;;;14.00;99.90;;;;;;5051102;28;20121;-78
2022/06/19 08:11:02;;;;;;;15.80;2.53;;;14.00;99.90;;;;;;5067018;28;20263;-78
2022/06/19 08:13:30;;;;;;;12.90;2.60;;;14.10;99.90;;;;;;5066817;28;20397;-78
2022/06/19 08:15:59;;;;;;;10.75;2.70;;;14.10;99.90;;;;;;5059002;28;20062;-78
2022/06/19 08:18:26;;;;;;;13.10;2.20;;;14.10;99.90;;;;;;5063947;28;20032;-78
2022/06/19 08:20:53;;;;;;;13.57;2.53;;;14.10;99.90;;;;;;5080147;28;20040;-78
2022/06/19 08:23:19;;;;;;;11.63;2.40;;;14.10;99.90;;;;;;5053631;28;20453;-78
2022/06/19 08:25:46;;;;;;;11.30;2.30;;;14.10;99.90;;;;;;5064504;28;20036;-78
2022/06/19 08:28:12;;;;;;;13.30;2.67;;;14.10;99.90;;;;;;5062719;28;20462;-78
2022/06/19 08:30:41;;;;;;;10.00;2.20;;;14.20;99.90;;;;;;5050486;28;20487;-78
2022/06/19 08:33:07;;;;;;;13.70;2.30;;;14.20;99.90;;;;;;5061758;28;20490;-78
2022/06/19 08:35:43;;;;;;;11.50;2.65;;;14.30;99.90;;;;;;5066790;28;20047;-78
2022/06/19 08:38:15;;;;;;;13.88;2.70;;;14.20;99.90;;;;;;5075227;28;20038;-78
2022/06/19 08:41:03;;;;;;;14.27;2.73;;;14.30;99.90;;;;;;5083639;28;20520;-79
2022/06/19 08:43:54;;;;;;;13.50;3.17;;;14.40;99.90;;;;;;5063936;28;20382;-78
2022/06/19 08:46:42;;;;;;;11.10;2.50;;;14.50;99.90;;;;;;5067987;28;20140;-78
2022/06/19 08:49:42;;;;;;;15.10;2.70;;;14.50;99.90;;;;;;5061551;28;20112;-77
2022/06/19 08:52:31;;;;;;;10.40;2.10;;;14.70;99.90;;;;;;5067172;28;20063;-77
2022/06/19 08:55:09;;;;;;;12.23;2.25;;;14.70;99.90;;;;;;5078761;28;20094;-77
2022/06/19 08:57:43;;;;;;;9.10;1.98;;;14.80;99.90;;;;;;5061590;28;20044;-78
2022/06/19 09:00:24;;;;;;;13.40;2.30;;;14.90;99.90;;;;;;5062230;28;20038;-78
2022/06/19 09:03:04;;;;;;;10.48;2.30;;;14.90;99.90;;;;;;5066696;28;20036;-77
2022/06/19 09:05:46;;;;;;;9.82;2.13;;;15.00;99.90;;;;;;5066985;28;20044;-77
2022/06/19 09:08:12;;;;;;;10.23;2.13;;;15.00;99.90;;;;;;5077276;28;20064;-78
2022/06/19 09:10:51;;;;;;;10.45;2.17;;;15.00;99.90;;;;;;5060411;28;20044;-77
2022/06/19 09:13:31;;;;;;;9.82;2.10;;;15.00;99.90;;;;;;5075019;28;20063;-77
2022/06/19 09:16:13;;;;;;;11.50;2.05;;;15.00;99.90;;;;;;5082318;28;20085;-77
2022/06/19 09:18:42;;;;;;;9.52;2.10;;;15.00;99.90;;;;;;5058652;28;20036;-79
2022/06/19 09:21:24;;;;;;;9.77;1.90;;;15.10;99.90;;;;;;5084153;28;20048;-78
2022/06/19 09:24:19;;;;;;;14.15;2.22;;;15.10;99.90;;;;;;5085565;28;20552;-78
2022/06/19 09:26:55;;;;;;;9.80;2.20;;;15.10;99.90;;;;;;5069829;28;20176;-78
2022/06/19 09:29:47;;;;;;;9.32;2.00;;;15.20;99.90;;;;;;5059284;28;20048;-77
2022/06/19 09:32:28;;;;;;;8.77;1.88;;;15.20;99.90;;;;;;5057529;28;20047;-77
2022/06/19 09:35:12;;;;;;;8.88;1.90;;;15.10;99.90;;;;;;5077436;28;20081;-77
2022/06/19 09:37:48;;;;;;;11.57;2.30;;;15.20;99.90;;;;;;5068573;28;20074;-78
2022/06/19 09:40:26;;;;;;;7.80;1.95;;;15.20;99.90;;;;;;5070537;28;20081;-78
2022/06/19 09:42:57;;;;;;;8.55;2.10;;;15.20;99.90;;;;;;5056507;28;20060;-78
2022/06/19 09:45:41;;;;;;;8.97;2.07;;;15.50;99.90;;;;;;5069481;28;20035;-77
2022/06/19 09:48:15;;;;;;;10.20;1.95;;;15.00;99.90;;;;;;5061313;28;20028;-78
2022/06/19 09:50:49;;;;;;;7.10;1.70;;;14.90;99.90;;;;;;5066960;28;20123;-78
2022/06/19 09:53:16;;;;;;;7.57;1.73;;;14.80;99.90;;;;;;5068661;28;20125;-77
2022/06/19 09:55:49;;;;;;;9.00;2.22;;;14.80;99.90;;;;;;5066904;28;20034;-78
2022/06/19 09:58:23;;;;;;;6.60;1.60;;;14.90;99.90;;;;;;5066910;28;20116;-78
2022/06/19 10:00:55;;;;;;;6.13;1.35;;;14.90;99.90;;;;;;5061588;28;20466;-78
2022/06/19 10:03:26;;;;;;;7.57;1.73;;;15.00;99.90;;;;;;5065551;28;20067;-78
2022/06/19 10:06:09;;;;;;;7.60;1.60;;;15.00;99.90;;;;;;5074263;28;20118;-77
2022/06/19 10:08:40;;;;;;;6.10;1.60;;;15.10;99.90;;;;;;5072850;28;20052;-78
2022/06/19 10:11:15;;;;;;;9.55;1.90;;;15.20;99.90;;;;;;5094723;28;20054;-78
2022/06/19 10:13:50;;;;;;;9.00;1.77;;;15.20;99.90;;;;;;5075398;28;20072;-77
2022/06/19 10:16:31;;;;;;;7.18;1.70;;;15.30;99.90;;;;;;5073280;28;20392;-78
2022/06/19 10:19:00;;;;;;;5.13;1.65;;;15.40;99.90;;;;;;5069941;28;20040;-78
2022/06/19 10:22:14;;;;;;;9.07;1.52;;;15.40;99.90;;;;;;5070419;28;20090;-78
2022/06/19 10:24:43;;;;;;;8.35;1.60;;;15.40;99.90;;;;;;5067566;28;20052;-77
2022/06/19 10:27:24;;;;;;;7.25;1.98;;;15.50;99.90;;;;;;5064065;28;20086;-78
2022/06/19 10:30:08;;;;;;;4.53;1.17;;;15.60;99.90;;;;;;5070912;28;20248;-78
2022/06/19 10:32:50;;;;;;;7.38;1.55;;;15.60;99.90;;;;;;5073144;28;20036;-78
2022/06/19 10:35:36;;;;;;;6.70;1.50;;;15.70;99.90;;;;;;5089695;28;20533;-78
2022/06/19 10:38:20;;;;;;;6.25;1.50;;;15.70;99.90;;;;;;5071286;28;20386;-78
2022/06/19 10:41:00;;;;;;;5.10;1.25;;;15.70;99.90;;;;;;5072081;28;20079;-78
2022/06/19 10:43:52;;;;;;;7.85;1.65;;;15.80;99.90;;;;;;5052681;28;20044;-78
2022/06/19 10:46:18;;;;;;;6.28;1.30;;;15.80;99.90;;;;;;5069551;28;20044;-78
2022/06/19 10:48:58;;;;;;;4.03;1.25;;;15.80;99.90;;;;;;5029659;28;20040;-77
2022/06/19 10:51:36;;;;;;;7.38;1.58;;;15.80;99.90;;;;;;5085741;28;20040;-78
2022/06/19 10:54:14;;;;;;;6.00;1.40;;;15.70;99.90;;;;;;5052400;28;20071;-78
2022/06/19 10:56:57;;;;;;;6.57;1.48;;;15.90;99.90;;;;;;5052801;28;20041;-78
2022/06/19 10:59:25;;;;;;;5.43;1.17;;;16.00;99.90;;;;;;5065847;28;20049;-78
2022/06/19 11:05:01;;;;;;;6.07;1.42;;;16.20;99.90;;;;;;5078475;28;20044;-78
2022/06/19 11:07:28;;;;;;;4.00;1.05;;;16.30;99.90;;;;;;5063514;28;20563;-78
2022/06/19 11:09:59;;;;;;;3.70;1.15;;;16.40;99.90;;;;;;5070388;28;20192;-78
2022/06/19 11:12:37;;;;;;;4.47;1.35;;;16.30;99.90;;;;;;5055912;28;20089;-77
2022/06/19 11:15:36;;;;;;;4.80;1.45;;;16.30;99.90;;;;;;5071026;28;20040;-78
2022/06/19 11:18:08;;;;;;;5.85;1.63;;;16.20;99.90;;;;;;5054700;28;20097;-78
2022/06/19 11:20:34;;;;;;;4.13;1.10;;;16.20;99.90;;;;;;5052162;28;20044;-78
2022/06/19 11:23:37;;;;;;;3.90;1.10;;;16.10;99.90;;;;;;5059695;28;20046;-77
2022/06/19 11:26:17;;;;;;;3.80;1.30;;;16.00;99.90;;;;;;5068476;28;20094;-78
2022/06/19 11:29:12;;;;;;;5.70;1.23;;;15.80;99.90;;;;;;5053218;28;20376;-78
2022/06/19 11:31:58;;;;;;;3.63;1.50;;;15.80;99.90;;;;;;5079108;28;20048;-77
2022/06/19 11:37:33;;;;;;;5.20;1.30;;;15.60;99.90;;;;;;5074504;28;20043;-79
2022/06/19 11:39:59;;;;;;;5.13;1.30;;;15.40;99.90;;;;;;5071193;28;20048;-77
2022/06/19 11:42:35;;;;;;;6.25;1.42;;;15.40;99.90;;;;;;5070930;28;20466;-77
2022/06/19 11:45:13;;;;;;;3.42;1.20;;;15.30;99.90;;;;;;5061567;28;20036;-77
2022/06/19 11:48:10;;;;;;;5.35;1.42;;;15.30;99.90;;;;;;5072719;28;20402;-78
2022/06/19 11:50:37;;;;;;;5.10;1.50;;;15.20;99.90;;;;;;5044055;28;20053;-77
2022/06/19 11:53:14;;;;;;;6.65;1.40;;;15.10;99.90;;;;;;5052460;28;20299;-77
2022/06/19 11:55:48;;;;;;;3.88;1.20;;;15.10;99.90;;;;;;5065700;28;20040;-77
2022/06/19 11:58:19;;;;;;;7.75;1.55;;;15.10;99.90;;;;;;5070586;28;20426;-78
2022/06/19 12:00:52;;;;;;;8.38;1.67;;;15.00;99.90;;;;;;5087997;28;20059;-78
2022/06/19 12:03:31;;;;;;;5.55;1.55;;;15.00;99.90;;;;;;5055138;28;20063;-78
2022/06/19 12:06:04;;;;;;;5.75;1.50;;;15.00;99.90;;;;;;5084901;28;20101;-77
2022/06/19 12:08:55;;;;;;;7.47;1.85;;;14.90;99.90;;;;;;4371832;28;10000785;-79
2022/06/19 12:11:39;;;;;;;7.13;1.70;;;15.50;99.90;;;;;;5076686;28;20109;-78
2022/06/19 12:14:10;;;;;;;5.82;1.70;;;14.90;99.90;;;;;;5062641;28;20036;-78
2022/06/19 12:16:38;;;;;;;6.67;1.60;;;14.90;99.90;;;;;;5066032;28;20457;-78
2022/06/19 12:19:33;;;;;;;5.03;1.45;;;15.00;99.90;;;;;;5062176;28;20438;-78
2022/06/19 12:22:04;;;;;;;7.25;1.60;;;15.00;99.90;;;;;;5066103;28;20052;-80
2022/06/19 12:24:46;;;;;;;6.10;1.73;;;15.00;99.90;;;;;;5059161;28;20401;-79
2022/06/19 12:27:17;;;;;;;8.77;1.77;;;15.10;99.90;;;;;;5071607;28;20063;-79
2022/06/19 12:29:52;;;;;;;7.35;1.55;;;15.20;99.90;;;;;;5082339;28;20044;-78
2022/06/19 12:32:26;;;;;;;7.45;1.70;;;15.10;99.90;;;;;;5059069;28;20040;-79
2022/06/19 12:34:55;;;;;;;7.53;1.85;;;15.30;99.90;;;;;;5079356;28;20221;-78
2022/06/19 12:37:23;;;;;;;6.75;1.60;;;15.50;99.90;;;;;;5060200;28;20093;-79
2022/06/19 12:39:49;;;;;;;9.38;1.98;;;15.80;99.90;;;;;;5041281;28;20066;-78
2022/06/19 12:42:49;;;;;;;7.97;1.73;;;16.10;99.90;;;;;;5045514;28;20078;-78
2022/06/19 12:45:45;;;;;;;7.85;1.60;;;16.40;99.90;;;;;;5063574;28;20048;-78
2022/06/19 12:48:32;;;;;;;6.72;1.60;;;16.60;99.90;;;;;;5061648;28;20143;-78
2022/06/19 12:51:25;;;;;;;8.07;2.17;;;16.60;99.90;;;;;;5083713;28;20076;-79
2022/06/19 12:53:57;;;;;;;7.40;1.70;;;16.60;99.90;;;;;;5062770;28;20037;-78
2022/06/19 12:56:38;;;;;;;10.02;1.80;;;16.50;99.90;;;;;;5058687;28;20123;-79
2022/06/19 12:59:23;;;;;;;8.15;1.73;;;16.40;99.90;;;;;;5057087;28;20032;-79
2022/06/19 13:01:58;;;;;;;8.23;1.90;;;16.40;99.90;;;;;;5061071;28;20260;-80
2022/06/19 13:04:46;;;;;;;8.57;1.80;;;16.40;99.90;;;;;;5081709;28;20068;-79
2022/06/19 13:07:15;;;;;;;7.85;1.75;;;16.40;99.90;;;;;;5077491;28;20262;-79
2022/06/19 13:10:22;;;;;;;6.97;1.70;;;16.30;99.90;;;;;;5061564;28;20136;-79
2022/06/19 13:12:57;;;;;;;10.57;2.15;;;16.40;99.90;;;;;;5063727;28;20144;-79